sensor_id;sensor_type;location;lat;lon;timestamp;pressure;altitude;pressure_sealevel;temperature;humidity
76132;BME280;64877;50.994;13.650;2023-03-03T00:00:43;100163.00;;;-0.05;76.72
76132;BME280;64877;50.994;13.650;2023-03-03T00:03:11;100161.19;;;-0.03;76.78
76132;BME280;64877;50.994;13.650;2023-03-03T00:05:39;100163.66;;;0.03;75.94
76132;BME280;64877;50.994;13.650;2023-03-03T00:08:05;100156.63;;;0.02;76.91
76132;BME280;64877;50.994;13.650;2023-03-03T00:10:30;100158.31;;;0.05;76.81
76132;BME280;64877;50.994;13.650;2023-03-03T00:12:55;100169.72;;;0.08;77.44
76132;BME280;64877;50.994;13.650;2023-03-03T00:15:24;100174.78;;;0.17;77.49
76132;BME280;64877;50.994;13.650;2023-03-03T00:17:50;100176.22;;;0.29;77.29
76132;BME280;64877;50.994;13.650;2023-03-03T00:20:38;100171.72;;;0.33;77.12
76132;BME280;64877;50.994;13.650;2023-03-03T00:23:39;100172.13;;;0.50;77.92
76132;BME280;64877;50.994;13.650;2023-03-03T00:26:21;100170.56;;;0.43;78.54
76132;BME280;64877;50.994;13.650;2023-03-03T00:28:48;100171.53;;;0.39;79.80
76132;BME280;64877;50.994;13.650;2023-03-03T00:31:29;100177.44;;;0.50;80.46
76132;BME280;64877;50.994;13.650;2023-03-03T00:33:59;100175.34;;;0.61;81.17
76132;BME280;64877;50.994;13.650;2023-03-03T00:36:30;100168.06;;;0.68;80.82
76132;BME280;64877;50.994;13.650;2023-03-03T00:41:50;100170.59;;;0.72;82.67
76132;BME280;64877;50.994;13.650;2023-03-03T00:47:22;100167.25;;;0.66;82.94
76132;BME280;64877;50.994;13.650;2023-03-03T00:49:49;100174.13;;;0.73;83.92
76132;BME280;64877;50.994;13.650;2023-03-03T00:52:18;100174.22;;;0.70;82.82
76132;BME280;64877;50.994;13.650;2023-03-03T00:54:44;100168.91;;;0.70;83.65
76132;BME280;64877;50.994;13.650;2023-03-03T00:57:10;100162.53;;;0.75;84.16
76132;BME280;64877;50.994;13.650;2023-03-03T00:59:38;100172.13;;;0.81;83.74
76132;BME280;64877;50.994;13.650;2023-03-03T01:02:04;100163.09;;;0.87;83.86
76132;BME280;64877;50.994;13.650;2023-03-03T01:04:30;100169.28;;;0.87;83.03
76132;BME280;64877;50.994;13.650;2023-03-03T01:06:55;100172.00;;;0.84;83.72
76132;BME280;64877;50.994;13.650;2023-03-03T01:09:21;100173.84;;;0.82;83.48
76132;BME280;64877;50.994;13.650;2023-03-03T01:11:47;100167.28;;;0.64;83.12
76132;BME280;64877;50.994;13.650;2023-03-03T01:14:12;100176.88;;;0.70;83.70
76132;BME280;64877;50.994;13.650;2023-03-03T01:16:38;100183.94;;;0.69;83.45
76132;BME280;64877;50.994;13.650;2023-03-03T01:19:05;100188.41;;;0.69;83.80
76132;BME280;64877;50.994;13.650;2023-03-03T01:21:30;100179.66;;;0.65;83.49
76132;BME280;64877;50.994;13.650;2023-03-03T01:23:56;100180.47;;;0.67;83.65
76132;BME280;64877;50.994;13.650;2023-03-03T01:26:21;100184.88;;;0.68;83.96
76132;BME280;64877;50.994;13.650;2023-03-03T01:28:47;100187.66;;;0.65;83.79
76132;BME280;64877;50.994;13.650;2023-03-03T01:31:12;100189.59;;;0.59;84.04
76132;BME280;64877;50.994;13.650;2023-03-03T01:33:38;100179.19;;;0.51;84.12
76132;BME280;64877;50.994;13.650;2023-03-03T01:36:03;100187.97;;;0.53;83.75
76132;BME280;64877;50.994;13.650;2023-03-03T01:38:29;100188.16;;;0.47;84.73
76132;BME280;64877;50.994;13.650;2023-03-03T01:40:56;100189.81;;;0.51;84.46
76132;BME280;64877;50.994;13.650;2023-03-03T01:43:26;100191.88;;;0.40;84.84
76132;BME280;64877;50.994;13.650;2023-03-03T01:48:41;100193.66;;;0.41;84.67
76132;BME280;64877;50.994;13.650;2023-03-03T01:51:20;100187.34;;;0.43;84.58
76132;BME280;64877;50.994;13.650;2023-03-03T01:53:54;100188.69;;;0.27;84.23
76132;BME280;64877;50.994;13.650;2023-03-03T01:56:21;100180.69;;;0.29;85.23
76132;BME280;64877;50.994;13.650;2023-03-03T01:59:06;100172.72;;;0.29;85.13
76132;BME280;64877;50.994;13.650;2023-03-03T02:01:33;100173.59;;;0.29;84.72
76132;BME280;64877;50.994;13.650;2023-03-03T02:03:59;100161.31;;;0.25;85.06
76132;BME280;64877;50.994;13.650;2023-03-03T02:06:37;100167.66;;;0.19;85.30
76132;BME280;64877;50.994;13.650;2023-03-03T02:12:00;100169.31;;;0.23;85.60
76132;BME280;64877;50.994;13.650;2023-03-03T02:14:27;100161.47;;;0.19;86.25
76132;BME280;64877;50.994;13.650;2023-03-03T02:16:53;100160.06;;;0.06;85.52
76132;BME280;64877;50.994;13.650;2023-03-03T02:19:46;100162.34;;;0.19;85.99
76132;BME280;64877;50.994;13.650;2023-03-03T02:22:16;100157.75;;;0.26;84.89
76132;BME280;64877;50.994;13.650;2023-03-03T02:24:50;100165.97;;;0.17;84.86
76132;BME280;64877;50.994;13.650;2023-03-03T02:27:17;100162.13;;;-0.06;85.82
76132;BME280;64877;50.994;13.650;2023-03-03T02:29:43;100158.00;;;-0.17;86.30
76132;BME280;64877;50.994;13.650;2023-03-03T02:32:09;100173.72;;;-0.08;85.55
76132;BME280;64877;50.994;13.650;2023-03-03T02:34:51;100175.22;;;0.02;84.72
76132;BME280;64877;50.994;13.650;2023-03-03T02:37:18;100162.91;;;-0.02;84.33
76132;BME280;64877;50.994;13.650;2023-03-03T02:39:43;100172.59;;;0.01;84.93
76132;BME280;64877;50.994;13.650;2023-03-03T02:44:40;100164.59;;;0.02;83.91
76132;BME280;64877;50.994;13.650;2023-03-03T02:47:06;100160.84;;;0.09;83.68
76132;BME280;64877;50.994;13.650;2023-03-03T02:49:33;100168.03;;;0.06;83.04
76132;BME280;64877;50.994;13.650;2023-03-03T02:52:01;100164.41;;;0.08;82.83
76132;BME280;64877;50.994;13.650;2023-03-03T02:54:29;100171.81;;;-0.03;82.79
76132;BME280;64877;50.994;13.650;2023-03-03T02:56:55;100177.03;;;0.00;83.52
76132;BME280;64877;50.994;13.650;2023-03-03T02:59:21;100184.75;;;0.09;82.57
76132;BME280;64877;50.994;13.650;2023-03-03T03:01:46;100174.22;;;0.06;82.46
76132;BME280;64877;50.994;13.650;2023-03-03T03:04:14;100176.03;;;0.04;82.72
76132;BME280;64877;50.994;13.650;2023-03-03T03:06:39;100171.56;;;0.06;82.87
76132;BME280;64877;50.994;13.650;2023-03-03T03:09:06;100177.03;;;0.00;82.62
76132;BME280;64877;50.994;13.650;2023-03-03T03:11:33;100183.34;;;-0.04;82.64
76132;BME280;64877;50.994;13.650;2023-03-03T03:14:00;100179.72;;;-0.02;81.73
76132;BME280;64877;50.994;13.650;2023-03-03T03:16:25;100189.94;;;-0.20;82.31
76132;BME280;64877;50.994;13.650;2023-03-03T03:18:50;100193.28;;;-0.12;82.55
76132;BME280;64877;50.994;13.650;2023-03-03T03:21:16;100194.41;;;-0.22;82.37
76132;BME280;64877;50.994;13.650;2023-03-03T03:23:42;100187.28;;;-0.20;83.01
76132;BME280;64877;50.994;13.650;2023-03-03T03:26:09;100185.66;;;-0.26;82.40
76132;BME280;64877;50.994;13.650;2023-03-03T03:28:35;100187.22;;;-0.17;83.63
76132;BME280;64877;50.994;13.650;2023-03-03T03:31:01;100188.41;;;-0.29;83.16
76132;BME280;64877;50.994;13.650;2023-03-03T03:33:26;100188.28;;;-0.24;83.70
76132;BME280;64877;50.994;13.650;2023-03-03T03:35:53;100185.41;;;-0.17;83.51
76132;BME280;64877;50.994;13.650;2023-03-03T03:38:20;100186.22;;;-0.13;83.28
76132;BME280;64877;50.994;13.650;2023-03-03T03:40:46;100190.44;;;-0.06;83.07
76132;BME280;64877;50.994;13.650;2023-03-03T03:43:11;100182.59;;;-0.09;82.52
76132;BME280;64877;50.994;13.650;2023-03-03T03:45:37;100183.91;;;-0.27;82.59
76132;BME280;64877;50.994;13.650;2023-03-03T03:48:02;100182.34;;;-0.36;83.53
76132;BME280;64877;50.994;13.650;2023-03-03T03:50:28;100176.00;;;-0.29;83.95
76132;BME280;64877;50.994;13.650;2023-03-03T03:52:53;100175.91;;;-0.26;83.56
76132;BME280;64877;50.994;13.650;2023-03-03T03:55:19;100169.72;;;-0.26;83.99
76132;BME280;64877;50.994;13.650;2023-03-03T03:57:44;100172.09;;;-0.15;84.03
76132;BME280;64877;50.994;13.650;2023-03-03T04:00:10;100169.19;;;-0.05;83.69
76132;BME280;64877;50.994;13.650;2023-03-03T04:02:36;100186.97;;;-0.08;83.69
76132;BME280;64877;50.994;13.650;2023-03-03T04:05:03;100189.22;;;0.07;83.08
76132;BME280;64877;50.994;13.650;2023-03-03T04:07:29;100187.66;;;0.00;82.14
76132;BME280;64877;50.994;13.650;2023-03-03T04:09:54;100205.47;;;-0.05;82.39
76132;BME280;64877;50.994;13.650;2023-03-03T04:12:20;100198.41;;;-0.06;82.68
76132;BME280;64877;50.994;13.650;2023-03-03T04:14:45;100193.47;;;-0.20;82.88
76132;BME280;64877;50.994;13.650;2023-03-03T04:17:21;100196.75;;;-0.10;83.22
76132;BME280;64877;50.994;13.650;2023-03-03T04:19:47;100195.00;;;-0.11;82.65
76132;BME280;64877;50.994;13.650;2023-03-03T04:22:12;100210.22;;;-0.18;82.95
76132;BME280;64877;50.994;13.650;2023-03-03T04:24:39;100219.16;;;-0.22;83.73
76132;BME280;64877;50.994;13.650;2023-03-03T04:27:05;100207.84;;;-0.29;82.56
76132;BME280;64877;50.994;13.650;2023-03-03T04:29:31;100209.41;;;-0.20;83.44
76132;BME280;64877;50.994;13.650;2023-03-03T04:31:56;100207.84;;;-0.29;82.60
76132;BME280;64877;50.994;13.650;2023-03-03T04:34:22;100206.22;;;-0.34;83.21
76132;BME280;64877;50.994;13.650;2023-03-03T04:36:47;100215.75;;;-0.27;83.11
76132;BME280;64877;50.994;13.650;2023-03-03T04:39:13;100218.34;;;-0.26;82.74
76132;BME280;64877;50.994;13.650;2023-03-03T04:41:38;100220.63;;;-0.10;83.43
76132;BME280;64877;50.994;13.650;2023-03-03T04:44:04;100232.38;;;-0.20;82.61
76132;BME280;64877;50.994;13.650;2023-03-03T04:46:29;100220.84;;;-0.18;82.79
76132;BME280;64877;50.994;13.650;2023-03-03T04:48:54;100216.84;;;-0.36;82.90
76132;BME280;64877;50.994;13.650;2023-03-03T04:51:21;100221.97;;;-0.28;83.91
76132;BME280;64877;50.994;13.650;2023-03-03T04:53:46;100230.03;;;-0.33;83.30
76132;BME280;64877;50.994;13.650;2023-03-03T04:56:12;100235.31;;;-0.31;84.16
76132;BME280;64877;50.994;13.650;2023-03-03T04:58:37;100236.88;;;-0.22;83.66
76132;BME280;64877;50.994;13.650;2023-03-03T05:01:02;100227.34;;;-0.30;83.91
76132;BME280;64877;50.994;13.650;2023-03-03T05:03:28;100236.06;;;-0.24;84.15
76132;BME280;64877;50.994;13.650;2023-03-03T05:05:53;100234.03;;;-0.15;84.26
76132;BME280;64877;50.994;13.650;2023-03-03T05:08:19;100239.38;;;-0.16;83.37
76132;BME280;64877;50.994;13.650;2023-03-03T05:10:44;100230.38;;;-0.09;83.02
76132;BME280;64877;50.994;13.650;2023-03-03T05:13:10;100233.94;;;-0.12;82.02
76132;BME280;64877;50.994;13.650;2023-03-03T05:15:35;100231.94;;;-0.02;83.73
76132;BME280;64877;50.994;13.650;2023-03-03T05:18:00;100232.81;;;-0.02;82.92
76132;BME280;64877;50.994;13.650;2023-03-03T05:20:26;100238.91;;;0.02;83.63
76132;BME280;64877;50.994;13.650;2023-03-03T05:22:52;100237.19;;;-0.01;83.59
76132;BME280;64877;50.994;13.650;2023-03-03T05:25:17;100239.84;;;0.01;84.00
76132;BME280;64877;50.994;13.650;2023-03-03T05:27:43;100232.53;;;0.09;83.56
76132;BME280;64877;50.994;13.650;2023-03-03T05:30:10;100226.91;;;-0.13;82.77
76132;BME280;64877;50.994;13.650;2023-03-03T05:32:36;100221.66;;;-0.16;84.58
76132;BME280;64877;50.994;13.650;2023-03-03T05:35:02;100226.84;;;-0.11;83.94
76132;BME280;64877;50.994;13.650;2023-03-03T05:37:28;100233.84;;;-0.07;83.39
76132;BME280;64877;50.994;13.650;2023-03-03T05:39:53;100231.78;;;0.04;83.83
76132;BME280;64877;50.994;13.650;2023-03-03T05:42:19;100228.13;;;0.08;82.63
76132;BME280;64877;50.994;13.650;2023-03-03T05:44:44;100216.75;;;0.03;82.73
76132;BME280;64877;50.994;13.650;2023-03-03T05:47:09;100208.09;;;-0.04;84.01
76132;BME280;64877;50.994;13.650;2023-03-03T05:49:35;100222.25;;;-0.03;83.76
76132;BME280;64877;50.994;13.650;2023-03-03T05:52:00;100238.84;;;0.05;83.15
76132;BME280;64877;50.994;13.650;2023-03-03T05:54:26;100244.06;;;0.08;83.04
76132;BME280;64877;50.994;13.650;2023-03-03T05:56:52;100238.59;;;0.14;83.81
76132;BME280;64877;50.994;13.650;2023-03-03T05:59:17;100237.72;;;0.15;83.23
76132;BME280;64877;50.994;13.650;2023-03-03T06:01:43;100234.94;;;0.18;83.39
76132;BME280;64877;50.994;13.650;2023-03-03T06:04:09;100232.13;;;0.24;83.23
76132;BME280;64877;50.994;13.650;2023-03-03T06:06:35;100233.91;;;0.24;82.50
76132;BME280;64877;50.994;13.650;2023-03-03T06:09:00;100227.84;;;0.20;82.85
76132;BME280;64877;50.994;13.650;2023-03-03T06:11:26;100237.38;;;0.28;82.32
76132;BME280;64877;50.994;13.650;2023-03-03T06:13:51;100235.81;;;0.20;82.27
76132;BME280;64877;50.994;13.650;2023-03-03T06:16:17;100241.88;;;0.25;82.74
76132;BME280;64877;50.994;13.650;2023-03-03T06:18:42;100234.72;;;0.28;82.07
76132;BME280;64877;50.994;13.650;2023-03-03T06:21:07;100230.63;;;0.14;82.38
76132;BME280;64877;50.994;13.650;2023-03-03T06:23:33;100230.50;;;0.19;82.79
76132;BME280;64877;50.994;13.650;2023-03-03T06:25:58;100227.19;;;0.11;82.85
76132;BME280;64877;50.994;13.650;2023-03-03T06:28:24;100222.44;;;0.23;83.54
76132;BME280;64877;50.994;13.650;2023-03-03T06:30:53;100217.16;;;0.22;82.18
76132;BME280;64877;50.994;13.650;2023-03-03T06:33:19;100219.88;;;0.20;82.29
76132;BME280;64877;50.994;13.650;2023-03-03T06:35:51;100229.75;;;0.15;82.24
76132;BME280;64877;50.994;13.650;2023-03-03T06:38:17;100229.88;;;0.09;82.38
76132;BME280;64877;50.994;13.650;2023-03-03T06:40:44;100230.50;;;0.19;82.47
76132;BME280;64877;50.994;13.650;2023-03-03T06:43:10;100245.47;;;0.23;82.07
76132;BME280;64877;50.994;13.650;2023-03-03T06:45:35;100246.09;;;0.33;82.52
76132;BME280;64877;50.994;13.650;2023-03-03T06:48:00;100258.25;;;0.41;80.93
76132;BME280;64877;50.994;13.650;2023-03-03T06:50:26;100249.63;;;0.33;80.90
76132;BME280;64877;50.994;13.650;2023-03-03T06:53:15;100255.03;;;0.30;81.31
76132;BME280;64877;50.994;13.650;2023-03-03T06:55:41;100261.09;;;0.34;81.35
76132;BME280;64877;50.994;13.650;2023-03-03T06:58:17;100267.06;;;0.43;81.17
76132;BME280;64877;50.994;13.650;2023-03-03T07:00:46;100263.59;;;0.40;80.78
76132;BME280;64877;50.994;13.650;2023-03-03T07:03:17;100264.44;;;0.42;81.79
76132;BME280;64877;50.994;13.650;2023-03-03T07:05:43;100261.66;;;0.46;81.61
76132;BME280;64877;50.994;13.650;2023-03-03T07:08:17;100269.13;;;0.32;81.56
76132;BME280;64877;50.994;13.650;2023-03-03T07:10:44;100275.25;;;0.36;82.12
76132;BME280;64877;50.994;13.650;2023-03-03T07:13:25;100288.41;;;0.40;82.43
76132;BME280;64877;50.994;13.650;2023-03-03T07:15:52;100282.88;;;0.48;82.14
76132;BME280;64877;50.994;13.650;2023-03-03T07:20:57;100277.66;;;0.45;81.86
76132;BME280;64877;50.994;13.650;2023-03-03T07:23:26;100271.56;;;0.40;82.09
76132;BME280;64877;50.994;13.650;2023-03-03T07:25:52;100279.69;;;0.34;82.08
76132;BME280;64877;50.994;13.650;2023-03-03T07:28:22;100289.41;;;0.35;82.46
76132;BME280;64877;50.994;13.650;2023-03-03T07:30:48;100283.22;;;0.36;82.76
76132;BME280;64877;50.994;13.650;2023-03-03T07:33:43;100277.22;;;0.28;82.15
76132;BME280;64877;50.994;13.650;2023-03-03T07:38:53;100281.19;;;0.45;82.44
76132;BME280;64877;50.994;13.650;2023-03-03T07:41:19;100297.88;;;0.50;81.74
76132;BME280;64877;50.994;13.650;2023-03-03T07:46:34;100305.81;;;0.52;81.91
76132;BME280;64877;50.994;13.650;2023-03-03T07:49:11;100311.81;;;0.60;81.98
76132;BME280;64877;50.994;13.650;2023-03-03T07:51:39;100310.81;;;0.63;81.40
76132;BME280;64877;50.994;13.650;2023-03-03T07:54:28;100315.44;;;0.56;81.67
76132;BME280;64877;50.994;13.650;2023-03-03T07:57:26;100311.94;;;0.54;81.68
76132;BME280;64877;50.994;13.650;2023-03-03T08:02:54;100306.38;;;0.63;81.85
76132;BME280;64877;50.994;13.650;2023-03-03T08:05:36;100301.34;;;0.52;81.83
76132;BME280;64877;50.994;13.650;2023-03-03T08:10:54;100294.19;;;0.55;81.57
76132;BME280;64877;50.994;13.650;2023-03-03T08:15:48;100296.50;;;0.68;81.28
76132;BME280;64877;50.994;13.650;2023-03-03T08:18:23;100299.16;;;0.68;80.96
76132;BME280;64877;50.994;13.650;2023-03-03T08:20:51;100298.97;;;0.76;81.16
76132;BME280;64877;50.994;13.650;2023-03-03T08:23:18;100296.06;;;0.84;80.65
76132;BME280;64877;50.994;13.650;2023-03-03T08:25:45;100308.38;;;0.88;80.29
76132;BME280;64877;50.994;13.650;2023-03-03T08:28:11;100299.59;;;0.86;81.00
76132;BME280;64877;50.994;13.650;2023-03-03T08:30:37;100295.44;;;0.75;81.24
76132;BME280;64877;50.994;13.650;2023-03-03T08:33:03;100297.25;;;0.73;81.02
76132;BME280;64877;50.994;13.650;2023-03-03T08:35:28;100299.72;;;0.80;81.36
76132;BME280;64877;50.994;13.650;2023-03-03T08:37:54;100304.09;;;0.82;81.55
76132;BME280;64877;50.994;13.650;2023-03-03T08:40:19;100295.25;;;0.82;81.16
76132;BME280;64877;50.994;13.650;2023-03-03T08:42:45;100296.94;;;0.86;81.14
76132;BME280;64877;50.994;13.650;2023-03-03T08:45:10;100302.06;;;0.92;80.83
76132;BME280;64877;50.994;13.650;2023-03-03T08:47:36;100301.44;;;1.13;82.34
76132;BME280;64877;50.994;13.650;2023-03-03T08:50:02;100299.34;;;1.54;84.11
76132;BME280;64877;50.994;13.650;2023-03-03T08:52:27;100301.38;;;1.46;81.13
76132;BME280;64877;50.994;13.650;2023-03-03T08:54:53;100309.13;;;1.24;79.80
76132;BME280;64877;50.994;13.650;2023-03-03T08:57:18;100321.47;;;1.26;79.69
76132;BME280;64877;50.994;13.650;2023-03-03T08:59:44;100317.06;;;1.25;78.56
76132;BME280;64877;50.994;13.650;2023-03-03T09:02:12;100321.59;;;1.22;78.64
76132;BME280;64877;50.994;13.650;2023-03-03T09:04:37;100320.81;;;1.18;79.47
76132;BME280;64877;50.994;13.650;2023-03-03T09:07:03;100310.88;;;1.25;79.37
76132;BME280;64877;50.994;13.650;2023-03-03T09:09:28;100315.34;;;1.24;79.07
76132;BME280;64877;50.994;13.650;2023-03-03T09:11:57;100311.91;;;1.19;78.93
76132;BME280;64877;50.994;13.650;2023-03-03T09:14:27;100310.28;;;1.14;79.29
76132;BME280;64877;50.994;13.650;2023-03-03T09:16:54;100320.31;;;1.04;79.24
76132;BME280;64877;50.994;13.650;2023-03-03T09:19:28;100322.22;;;1.00;79.74
76132;BME280;64877;50.994;13.650;2023-03-03T09:21:57;100327.41;;;1.05;80.56
76132;BME280;64877;50.994;13.650;2023-03-03T09:24:27;100329.16;;;1.06;80.15
76132;BME280;64877;50.994;13.650;2023-03-03T09:26:53;100329.09;;;1.08;80.31
76132;BME280;64877;50.994;13.650;2023-03-03T09:29:26;100330.06;;;1.05;79.81
76132;BME280;64877;50.994;13.650;2023-03-03T09:31:54;100335.22;;;1.11;79.93
76132;BME280;64877;50.994;13.650;2023-03-03T09:34:37;100342.56;;;1.01;79.12
76132;BME280;64877;50.994;13.650;2023-03-03T09:37:33;100334.53;;;1.05;79.15
76132;BME280;64877;50.994;13.650;2023-03-03T09:40:12;100339.59;;;1.12;79.46
76132;BME280;64877;50.994;13.650;2023-03-03T09:43:04;100338.78;;;1.10;79.20
76132;BME280;64877;50.994;13.650;2023-03-03T09:53:37;100363.91;;;1.00;78.36
76132;BME280;64877;50.994;13.650;2023-03-03T09:58:40;100354.81;;;1.07;79.45
76132;BME280;64877;50.994;13.650;2023-03-03T10:10:18;100360.22;;;1.04;78.83
76132;BME280;64877;50.994;13.650;2023-03-03T10:21:01;100356.13;;;1.23;78.90
76132;BME280;64877;50.994;13.650;2023-03-03T10:23:54;100359.47;;;1.32;78.99
76132;BME280;64877;50.994;13.650;2023-03-03T10:26:49;100362.94;;;1.34;78.33
76132;BME280;64877;50.994;13.650;2023-03-03T10:34:53;100371.19;;;1.24;78.56
76132;BME280;64877;50.994;13.650;2023-03-03T10:43:15;100374.44;;;1.34;78.00
76132;BME280;64877;50.994;13.650;2023-03-03T10:46:01;100371.03;;;1.31;77.34
76132;BME280;64877;50.994;13.650;2023-03-03T10:48:54;100372.69;;;1.33;77.43
76132;BME280;64877;50.994;13.650;2023-03-03T10:57:09;100366.44;;;1.36;78.02
76132;BME280;64877;50.994;13.650;2023-03-03T11:00:22;100369.13;;;1.34;77.47
76132;BME280;64877;50.994;13.650;2023-03-03T11:08:16;100365.16;;;1.49;76.84
76132;BME280;64877;50.994;13.650;2023-03-03T11:21:14;100370.22;;;1.58;77.24
76132;BME280;64877;50.994;13.650;2023-03-03T11:37:28;100347.38;;;1.51;76.58
76132;BME280;64877;50.994;13.650;2023-03-03T11:40:08;100349.84;;;1.57;76.59
76132;BME280;64877;50.994;13.650;2023-03-03T11:42:51;100347.25;;;1.54;76.00
76132;BME280;64877;50.994;13.650;2023-03-03T11:45:26;100345.97;;;1.67;76.22
76132;BME280;64877;50.994;13.650;2023-03-03T11:48:21;100344.31;;;1.63;76.16
76132;BME280;64877;50.994;13.650;2023-03-03T11:56:23;100343.47;;;1.63;76.86
76132;BME280;64877;50.994;13.650;2023-03-03T12:01:43;100341.91;;;1.55;77.24
76132;BME280;64877;50.994;13.650;2023-03-03T12:04:33;100341.06;;;1.53;77.32
76132;BME280;64877;50.994;13.650;2023-03-03T12:10:18;100337.47;;;1.56;77.36
76132;BME280;64877;50.994;13.650;2023-03-03T12:13:05;100335.66;;;1.57;77.27
76132;BME280;64877;50.994;13.650;2023-03-03T12:37:53;100327.59;;;1.60;76.39
76132;BME280;64877;50.994;13.650;2023-03-03T12:40:31;100324.69;;;1.67;76.83
76132;BME280;64877;50.994;13.650;2023-03-03T12:46:05;100311.56;;;1.61;76.42
76132;BME280;64877;50.994;13.650;2023-03-03T12:48:42;100309.69;;;1.65;75.85
76132;BME280;64877;50.994;13.650;2023-03-03T12:56:51;100299.06;;;1.63;76.40
76132;BME280;64877;50.994;13.650;2023-03-03T13:02:44;100300.84;;;1.64;76.45
76132;BME280;64877;50.994;13.650;2023-03-03T13:08:50;100295.19;;;1.75;75.33
76132;BME280;64877;50.994;13.650;2023-03-03T13:20:03;100302.38;;;1.71;76.65
76132;BME280;64877;50.994;13.650;2023-03-03T13:22:46;100295.03;;;1.79;75.17
76132;BME280;64877;50.994;13.650;2023-03-03T13:28:10;100298.56;;;1.80;75.13
76132;BME280;64877;50.994;13.650;2023-03-03T13:30:42;100295.75;;;1.85;74.77
76132;BME280;64877;50.994;13.650;2023-03-03T13:33:19;100294.91;;;1.83;74.38
76132;BME280;64877;50.994;13.650;2023-03-03T13:36:13;100289.50;;;1.86;73.97
76132;BME280;64877;50.994;13.650;2023-03-03T13:38:45;100294.56;;;1.93;74.11
76132;BME280;64877;50.994;13.650;2023-03-03T13:41:43;100291.09;;;1.91;72.59
76132;BME280;64877;50.994;13.650;2023-03-03T13:44:18;100291.38;;;1.82;72.40
76132;BME280;64877;50.994;13.650;2023-03-03T13:47:07;100299.63;;;1.74;73.64
76132;BME280;64877;50.994;13.650;2023-03-03T13:52:27;100282.81;;;1.72;72.99
76132;BME280;64877;50.994;13.650;2023-03-03T13:55:55;100287.00;;;1.81;73.19
76132;BME280;64877;50.994;13.650;2023-03-03T14:01:00;100281.59;;;1.83;71.81
76132;BME280;64877;50.994;13.650;2023-03-03T14:06:19;100277.03;;;1.60;72.62
76132;BME280;64877;50.994;13.650;2023-03-03T14:19:56;100270.03;;;1.55;73.98
76132;BME280;64877;50.994;13.650;2023-03-03T14:22:44;100266.69;;;1.49;74.44
76132;BME280;64877;50.994;13.650;2023-03-03T14:25:14;100263.56;;;1.64;74.02
76132;BME280;64877;50.994;13.650;2023-03-03T14:38:17;100243.38;;;1.57;73.14
76132;BME280;64877;50.994;13.650;2023-03-03T14:40:46;100254.66;;;1.65;73.32
76132;BME280;64877;50.994;13.650;2023-03-03T14:43:39;100246.47;;;1.71;71.82
76132;BME280;64877;50.994;13.650;2023-03-03T14:48:57;100238.19;;;1.80;72.18
76132;BME280;64877;50.994;13.650;2023-03-03T14:51:24;100232.25;;;1.72;71.98
76132;BME280;64877;50.994;13.650;2023-03-03T14:53:51;100241.97;;;1.73;71.92
76132;BME280;64877;50.994;13.650;2023-03-03T14:56:29;100233.88;;;1.76;72.72
76132;BME280;64877;50.994;13.650;2023-03-03T15:01:42;100239.13;;;1.79;71.65
76132;BME280;64877;50.994;13.650;2023-03-03T15:06:47;100226.63;;;1.81;71.19
76132;BME280;64877;50.994;13.650;2023-03-03T15:09:36;100234.53;;;1.85;71.61
76132;BME280;64877;50.994;13.650;2023-03-03T15:12:24;100233.03;;;1.76;71.82
76132;BME280;64877;50.994;13.650;2023-03-03T15:15:01;100234.09;;;1.70;71.81
76132;BME280;64877;50.994;13.650;2023-03-03T15:20:31;100231.16;;;1.78;71.62
76132;BME280;64877;50.994;13.650;2023-03-03T15:23:34;100234.91;;;1.72;71.56
76132;BME280;64877;50.994;13.650;2023-03-03T15:26:15;100239.41;;;1.70;71.94
76132;BME280;64877;50.994;13.650;2023-03-03T15:40:47;100232.09;;;1.77;71.71
76132;BME280;64877;50.994;13.650;2023-03-03T15:56:58;100231.00;;;1.56;72.37
76132;BME280;64877;50.994;13.650;2023-03-03T16:05:02;100242.13;;;1.39;73.08
76132;BME280;64877;50.994;13.650;2023-03-03T16:07:38;100243.94;;;1.39;72.97
76132;BME280;64877;50.994;13.650;2023-03-03T16:13:21;100252.22;;;1.29;73.71
76132;BME280;64877;50.994;13.650;2023-03-03T16:23:58;100242.47;;;1.28;73.23
76132;BME280;64877;50.994;13.650;2023-03-03T16:26:35;100239.28;;;1.17;73.79
76132;BME280;64877;50.994;13.650;2023-03-03T16:29:17;100248.06;;;1.19;74.00
76132;BME280;64877;50.994;13.650;2023-03-03T16:31:56;100254.31;;;1.18;73.07
76132;BME280;64877;50.994;13.650;2023-03-03T16:37:16;100250.59;;;1.24;73.38
76132;BME280;64877;50.994;13.650;2023-03-03T16:39:53;100253.38;;;1.19;73.18
76132;BME280;64877;50.994;13.650;2023-03-03T16:42:27;100257.22;;;1.11;73.92
76132;BME280;64877;50.994;13.650;2023-03-03T16:45:23;100262.56;;;1.09;74.23
76132;BME280;64877;50.994;13.650;2023-03-03T16:50:45;100252.28;;;0.97;74.40
76132;BME280;64877;50.994;13.650;2023-03-03T16:53:25;100248.66;;;0.99;75.04
76132;BME280;64877;50.994;13.650;2023-03-03T17:15:22;100252.38;;;0.94;75.23
76132;BME280;64877;50.994;13.650;2023-03-03T17:20:50;100259.72;;;0.86;75.39
76132;BME280;64877;50.994;13.650;2023-03-03T17:31:45;100251.59;;;0.90;75.54
76132;BME280;64877;50.994;13.650;2023-03-03T17:37:09;100257.97;;;0.85;75.71
76132;BME280;64877;50.994;13.650;2023-03-03T17:39:59;100261.38;;;0.90;75.34
76132;BME280;64877;50.994;13.650;2023-03-03T17:45:12;100259.28;;;0.70;76.06
76132;BME280;64877;50.994;13.650;2023-03-03T17:47:52;100273.31;;;0.75;75.94
76132;BME280;64877;50.994;13.650;2023-03-03T17:56:16;100268.19;;;0.67;76.98
76132;BME280;64877;50.994;13.650;2023-03-03T18:02:18;100269.78;;;0.73;76.01
76132;BME280;64877;50.994;13.650;2023-03-03T18:04:59;100264.59;;;0.68;76.41
76132;BME280;64877;50.994;13.650;2023-03-03T18:16:17;100275.91;;;0.76;76.38